Time,TemperatureF,DewpointF,PressureIn,WindDirection,WindDirectionDegrees,WindSpeedMPH,WindSpeedGustMPH,Humidity,HourlyPrecipIn,Conditions,Clouds,dailyrainin,SoftwareType,DateUTC
2013-02-17 00:00:00,8.7,2.7,30.06,ESE,112,0.0,0.0,76,0.00,,,0.00,WUHU140HW,2013-02-17 06:00:00,
2013-02-17 00:12:00,8.7,2.7,30.05,ESE,112,0.0,0.0,76,0.00,,,0.00,WUHU140HW,2013-02-17 06:12:00,
2013-02-17 00:23:00,8.7,3.0,30.05,ESE,112,0.0,0.0,77,0.00,,,0.00,WUHU140HW,2013-02-17 06:23:00,
2013-02-17 00:35:00,8.9,3.2,30.05,ESE,112,0.0,0.0,77,0.00,,,0.00,WUHU140HW,2013-02-17 06:35:00,
2013-02-17 00:46:00,9.1,3.3,30.05,SE,135,0.0,0.0,77,0.00,,,0.00,WUHU140HW,2013-02-17 06:46:00,
2013-02-17 00:57:00,9.1,3.3,30.06,SE,135,0.0,0.0,77,0.00,,,0.00,WUHU140HW,2013-02-17 06:57:00,
2013-02-17 01:09:00,9.1,3.3,30.06,ESE,112,0.0,0.0,77,0.00,,,0.00,WUHU140HW,2013-02-17 07:09:00,
2013-02-17 01:20:00,9.3,3.5,30.06,ESE,112,0.0,0.0,77,0.00,,,0.00,WUHU140HW,2013-02-17 07:20:00,
2013-02-17 01:32:00,8.9,3.2,30.06,ESE,112,0.0,0.0,77,0.00,,,0.00,WUHU140HW,2013-02-17 07:32:00,
2013-02-17 01:43:00,8.4,2.6,30.05,ESE,112,0.0,0.0,77,0.00,,,0.00,WUHU140HW,2013-02-17 07:43:00,
2013-02-17 01:54:00,8.2,2.5,30.05,ESE,112,0.0,0.0,77,0.00,,,0.00,WUHU140HW,2013-02-17 07:54:00,
2013-02-17 02:06:00,8.2,2.5,30.04,ESE,112,0.0,0.0,77,0.00,,,0.00,WUHU140HW,2013-02-17 08:06:00,
2013-02-17 02:17:00,8.4,2.9,30.04,ESE,112,0.0,0.0,78,0.00,,,0.00,WUHU140HW,2013-02-17 08:17:00,
2013-02-17 02:29:00,8.4,2.9,30.04,ESE,112,0.0,0.0,78,0.00,,,0.00,WUHU140HW,2013-02-17 08:29:00,
2013-02-17 02:40:00,8.7,3.3,30.04,ESE,112,0.0,0.0,78,0.00,,,0.00,WUHU140HW,2013-02-17 08:40:00,
2013-02-17 02:52:00,8.7,3.3,30.03,East,90,0.0,0.0,78,0.00,,,0.00,WUHU140HW,2013-02-17 08:52:00,
2013-02-17 03:03:00,9.1,3.9,30.04,ESE,112,0.0,0.0,79,0.00,,,0.00,WUHU140HW,2013-02-17 09:03:00,
2013-02-17 03:14:00,9.1,3.9,30.03,ESE,112,0.0,0.0,79,0.00,,,0.00,WUHU140HW,2013-02-17 09:14:00,
2013-02-17 03:26:00,9.1,3.9,30.02,ESE,112,0.0,0.0,79,0.00,,,0.00,WUHU140HW,2013-02-17 09:26:00,
2013-02-17 03:37:00,8.9,3.7,30.02,ESE,112,0.0,0.0,79,0.00,,,0.00,WUHU140HW,2013-02-17 09:37:00,
2013-02-17 03:49:00,8.6,3.4,30.02,ESE,112,0.0,0.0,79,0.00,,,0.00,WUHU140HW,2013-02-17 09:49:00,
2013-02-17 04:00:00,8.4,3.2,30.02,ESE,112,0.0,0.0,79,0.00,,,0.00,WUHU140HW,2013-02-17 10:00:00,
2013-02-17 04:11:00,8.4,3.2,30.02,SE,135,0.0,0.0,79,0.00,,,0.00,WUHU140HW,2013-02-17 10:11:00,
2013-02-17 04:23:00,8.4,3.5,30.02,ESE,112,0.0,0.0,80,0.00,,,0.00,WUHU140HW,2013-02-17 10:23:00,
2013-02-17 04:34:00,8.6,3.7,30.01,ESE,112,0.0,0.0,80,0.00,,,0.00,WUHU140HW,2013-02-17 10:34:00,
2013-02-17 04:46:00,9.1,4.2,30.01,ESE,112,0.0,0.0,80,0.00,,,0.00,WUHU140HW,2013-02-17 10:46:00,
2013-02-17 04:57:00,9.1,4.2,30.01,ESE,112,0.0,0.0,80,0.00,,,0.00,WUHU140HW,2013-02-17 10:57:00,
2013-02-17 05:09:00,9.1,4.2,30.00,ESE,112,0.0,0.0,80,0.00,,,0.00,WUHU140HW,2013-02-17 11:09:00,
2013-02-17 05:20:00,9.3,4.6,30.00,SE,135,0.0,0.0,81,0.00,,,0.00,WUHU140HW,2013-02-17 11:20:00,
2013-02-17 05:31:00,9.6,4.9,30.00,ESE,112,0.0,0.0,81,0.00,,,0.00,WUHU140HW,2013-02-17 11:31:00,
2013-02-17 05:43:00,9.6,4.9,30.00,ESE,112,0.0,0.0,81,0.00,,,0.00,WUHU140HW,2013-02-17 11:43:00,
2013-02-17 05:54:00,9.6,4.9,29.99,ESE,112,0.0,0.0,81,0.00,,,0.00,WUHU140HW,2013-02-17 11:54:00,
2013-02-17 06:06:00,10.2,5.4,29.99,SE,135,0.0,0.0,81,0.00,,,0.00,WUHU140HW,2013-02-17 12:06:00,
2013-02-17 06:17:00,10.7,5.9,29.99,SE,135,0.0,0.0,81,0.00,,,0.00,WUHU140HW,2013-02-17 12:17:00,
2013-02-17 06:28:00,11.1,6.6,29.98,SE,135,0.0,0.0,82,0.00,,,0.00,WUHU140HW,2013-02-17 12:28:00,
2013-02-17 06:40:00,11.1,6.6,29.98,SE,135,0.0,0.0,82,0.00,,,0.00,WUHU140HW,2013-02-17 12:40:00,
2013-02-17 06:51:00,11.3,6.8,29.97,SE,135,0.0,0.0,82,0.00,,,0.00,WUHU140HW,2013-02-17 12:51:00,
2013-02-17 07:03:00,11.3,6.8,29.96,ESE,112,0.0,0.0,82,0.00,,,0.00,WUHU140HW,2013-02-17 13:03:00,
2013-02-17 07:14:00,11.1,6.6,29.95,ESE,112,0.0,0.0,82,0.00,,,0.00,WUHU140HW,2013-02-17 13:14:00,
2013-02-17 07:25:00,11.1,6.6,29.95,SE,135,0.0,0.0,82,0.00,,,0.00,WUHU140HW,2013-02-17 13:25:00,
2013-02-17 07:37:00,12.5,8.3,29.95,SE,135,0.0,0.0,83,0.00,,,0.00,WUHU140HW,2013-02-17 13:37:00,
2013-02-17 07:48:00,14.3,10.1,29.95,SSE,157,0.0,0.0,83,0.00,,,0.00,WUHU140HW,2013-02-17 13:48:00,
2013-02-17 08:00:00,14.9,10.3,29.95,ESE,112,0.0,0.0,82,0.00,,,0.00,WUHU140HW,2013-02-17 14:00:00,
2013-02-17 08:11:00,15.2,10.4,29.95,SE,135,0.0,0.0,81,0.00,,,0.00,WUHU140HW,2013-02-17 14:11:00,
2013-02-17 08:23:00,15.9,11.1,29.95,SE,135,0.0,0.0,81,0.00,,,0.00,WUHU140HW,2013-02-17 14:23:00,
2013-02-17 08:34:00,17.4,12.2,29.95,SE,135,0.0,0.0,80,0.00,,,0.00,WUHU140HW,2013-02-17 14:34:00,
2013-02-17 08:45:00,19.0,13.5,29.94,SE,135,0.0,0.0,79,0.00,,,0.00,WUHU140HW,2013-02-17 14:45:00,
2013-02-17 08:57:00,19.9,13.4,29.95,SE,135,0.0,0.0,76,0.00,,,0.00,WUHU140HW,2013-02-17 14:57:00,
2013-02-17 09:08:00,20.4,14.0,29.95,SE,135,0.0,0.0,76,0.00,,,0.00,WUHU140HW,2013-02-17 15:08:00,
2013-02-17 09:20:00,21.7,14.6,29.95,SE,135,0.0,0.0,74,0.00,,,0.00,WUHU140HW,2013-02-17 15:20:00,
2013-02-17 09:31:00,22.1,15.0,29.94,SSE,157,0.0,0.0,74,0.00,,,0.00,WUHU140HW,2013-02-17 15:31:00,
2013-02-17 09:42:00,22.6,14.9,29.94,SE,135,0.0,0.0,72,0.00,,,0.00,WUHU140HW,2013-02-17 15:42:00,
2013-02-17 09:54:00,23.7,15.9,29.94,ESE,112,0.0,0.0,72,0.00,,,0.00,WUHU140HW,2013-02-17 15:54:00,
2013-02-17 10:05:00,24.4,16.3,29.93,SSE,157,0.0,0.0,71,0.00,,,0.00,WUHU140HW,2013-02-17 16:05:00,
2013-02-17 10:17:00,25.1,16.3,29.92,SE,135,0.0,0.0,69,0.00,,,0.00,WUHU140HW,2013-02-17 16:17:00,
2013-02-17 10:28:00,25.5,16.7,29.92,SE,135,0.0,0.0,69,0.00,,,0.00,WUHU140HW,2013-02-17 16:28:00,
2013-02-17 10:40:00,26.4,16.8,29.92,SE,135,0.0,0.0,67,0.00,,,0.00,WUHU140HW,2013-02-17 16:40:00,
2013-02-17 10:51:00,26.4,16.8,29.92,SE,135,0.0,0.0,67,0.00,,,0.00,WUHU140HW,2013-02-17 16:51:00,
2013-02-17 11:02:00,27.6,17.7,29.92,SE,135,0.0,0.0,66,0.00,,,0.00,WUHU140HW,2013-02-17 17:02:00,
2013-02-17 11:14:00,28.9,18.6,29.91,South,180,0.0,0.0,65,0.00,,,0.00,WUHU140HW,2013-02-17 17:14:00,
2013-02-17 11:25:00,29.6,18.9,29.91,SE,135,0.0,0.0,64,0.00,,,0.00,WUHU140HW,2013-02-17 17:25:00,
2013-02-17 11:37:00,30.5,19.0,29.91,SE,135,0.0,0.0,62,0.00,,,0.00,WUHU140HW,2013-02-17 17:37:00,
2013-02-17 11:48:00,31.2,19.7,29.90,SE,135,0.0,0.0,62,0.00,,,0.00,WUHU140HW,2013-02-17 17:48:00,
2013-02-17 11:59:00,31.8,19.9,29.89,SE,135,0.0,0.0,61,0.00,,,0.00,WUHU140HW,2013-02-17 17:59:00,
2013-02-17 12:11:00,31.1,19.5,29.88,ESE,112,0.0,0.0,62,0.00,,,0.00,WUHU140HW,2013-02-17 18:11:00,
2013-02-17 12:22:00,31.1,19.7,29.87,East,90,0.0,0.0,62,0.00,,,0.00,WUHU140HW,2013-02-17 18:22:00,
2013-02-17 12:34:00,30.7,19.5,29.86,SE,135,0.0,0.0,63,0.00,,,0.00,WUHU140HW,2013-02-17 18:34:00,
2013-02-17 12:45:00,30.9,20.1,29.86,ESE,112,0.0,0.0,64,0.00,,,0.00,WUHU140HW,2013-02-17 18:45:00,
2013-02-17 12:57:00,30.9,20.1,29.86,SE,135,0.0,0.0,64,0.00,,,0.00,WUHU140HW,2013-02-17 18:57:00,
2013-02-17 13:08:00,32.1,21.7,29.85,SSE,157,0.0,0.0,65,0.00,,,0.00,WUHU140HW,2013-02-17 19:08:00,
2013-02-17 13:19:00,32.7,21.4,29.84,ESE,112,0.0,0.0,63,0.00,,,0.00,WUHU140HW,2013-02-17 19:19:00,
2013-02-17 13:31:00,32.3,21.5,29.84,SE,135,0.0,0.0,64,0.00,,,0.00,WUHU140HW,2013-02-17 19:31:00,
2013-02-17 13:42:00,32.1,21.3,29.83,ESE,112,0.0,0.0,64,0.00,,,0.00,WUHU140HW,2013-02-17 19:42:00,
2013-02-17 13:54:00,32.1,21.3,29.82,ESE,112,0.0,0.0,64,0.00,,,0.00,WUHU140HW,2013-02-17 19:54:00,
2013-02-17 14:05:00,32.1,21.7,29.82,ESE,112,0.0,0.0,65,0.00,,,0.00,WUHU140HW,2013-02-17 20:05:00,
2013-02-17 14:16:00,31.8,21.3,29.81,SE,135,0.0,0.0,65,0.00,,,0.00,WUHU140HW,2013-02-17 20:16:00,
2013-02-17 14:28:00,32.5,21.6,29.80,ESE,112,0.0,0.0,64,0.00,,,0.00,WUHU140HW,2013-02-17 20:28:00,
2013-02-17 14:39:00,32.7,21.8,29.79,SE,135,0.0,0.0,64,0.00,,,0.00,WUHU140HW,2013-02-17 20:39:00,
2013-02-17 14:51:00,33.0,22.1,29.79,SE,135,0.0,0.0,64,0.00,,,0.00,WUHU140HW,2013-02-17 20:51:00,
2013-02-17 15:02:00,33.2,22.3,29.78,ESE,112,0.0,0.0,64,0.00,,,0.00,WUHU140HW,2013-02-17 21:02:00,
2013-02-17 15:14:00,32.7,22.2,29.78,SE,135,0.0,0.0,65,0.00,,,0.00,WUHU140HW,2013-02-17 21:14:00,
2013-02-17 15:25:00,32.9,22.3,29.78,SSE,157,0.0,0.0,65,0.00,,,0.00,WUHU140HW,2013-02-17 21:25:00,
2013-02-17 15:36:00,32.7,22.2,29.77,SE,135,0.0,0.0,65,0.00,,,0.00,WUHU140HW,2013-02-17 21:36:00,
2013-02-17 15:48:00,33.0,22.5,29.77,SE,135,0.0,0.0,65,0.00,,,0.00,WUHU140HW,2013-02-17 21:48:00,
2013-02-17 15:59:00,32.7,22.5,29.76,SE,135,0.0,0.0,66,0.00,,,0.00,WUHU140HW,2013-02-17 21:59:00,
2013-02-17 16:11:00,32.1,22.4,29.75,SE,135,0.0,0.0,67,0.00,,,0.00,WUHU140HW,2013-02-17 22:11:00,
2013-02-17 16:22:00,32.1,22.4,29.74,SSE,157,0.0,0.0,67,0.00,,,0.00,WUHU140HW,2013-02-17 22:22:00,
2013-02-17 16:33:00,32.1,22.4,29.74,SE,135,0.0,0.0,67,0.00,,,0.00,WUHU140HW,2013-02-17 22:33:00,
2013-02-17 16:45:00,31.6,22.6,29.74,SE,135,0.0,0.0,69,0.00,,,0.00,WUHU140HW,2013-02-17 22:45:00,
2013-02-17 16:56:00,31.2,22.4,29.73,East,90,0.0,0.0,70,0.00,,,0.00,WUHU140HW,2013-02-17 22:56:00,
2013-02-17 17:08:00,30.7,22.4,29.73,SE,135,0.0,0.0,71,0.00,,,0.00,WUHU140HW,2013-02-17 23:08:00,
2013-02-17 17:19:00,30.3,22.0,29.73,SE,135,0.0,0.0,71,0.00,,,0.00,WUHU140HW,2013-02-17 23:19:00,
2013-02-17 17:31:00,30.3,22.3,29.72,SE,135,0.0,0.0,72,0.00,,,0.00,WUHU140HW,2013-02-17 23:31:00,
2013-02-17 17:42:00,30.0,22.3,29.72,SE,135,0.0,0.0,73,0.00,,,0.00,WUHU140HW,2013-02-17 23:42:00,
2013-02-17 17:53:00,29.8,22.1,29.71,SE,135,0.0,0.0,73,0.00,,,0.00,WUHU140HW,2013-02-17 23:53:00,
2013-02-17 18:05:00,29.6,22.3,29.71,SE,135,0.0,0.0,74,0.00,,,0.00,WUHU140HW,2013-02-18 00:05:00,
2013-02-17 18:16:00,29.4,22.1,29.71,SE,135,0.0,0.0,74,0.00,,,0.00,WUHU140HW,2013-02-18 00:16:00,
2013-02-17 18:28:00,29.4,22.1,29.71,ESE,112,0.0,0.0,74,0.00,,,0.00,WUHU140HW,2013-02-18 00:28:00,
2013-02-17 18:39:00,29.4,22.1,29.70,SE,135,0.0,0.0,74,0.00,,,0.00,WUHU140HW,2013-02-18 00:39:00,
2013-02-17 18:50:00,29.1,22.1,29.69,SE,135,0.0,0.0,75,0.00,,,0.00,WUHU140HW,2013-02-18 00:50:00,
2013-02-17 19:02:00,29.1,22.4,29.69,SE,135,0.0,0.0,76,0.00,,,0.00,WUHU140HW,2013-02-18 01:02:00,
2013-02-17 19:13:00,29.1,22.4,29.69,SE,135,0.0,0.0,76,0.00,,,0.00,WUHU140HW,2013-02-18 01:13:00,
2013-02-17 19:25:00,29.1,22.7,29.69,SE,135,0.0,0.0,77,0.00,,,0.00,WUHU140HW,2013-02-18 01:25:00,
2013-02-17 19:36:00,29.1,22.7,29.70,SE,135,0.0,0.0,77,0.00,,,0.00,WUHU140HW,2013-02-18 01:36:00,
2013-02-17 19:48:00,29.1,22.7,29.70,SE,135,0.0,0.0,77,0.00,,,0.00,WUHU140HW,2013-02-18 01:48:00,
2013-02-17 19:59:00,29.1,22.7,29.70,SE,135,0.0,0.0,77,0.00,,,0.00,WUHU140HW,2013-02-18 01:59:00,
2013-02-17 20:10:00,29.1,22.7,29.68,SE,135,0.0,0.0,77,0.00,,,0.00,WUHU140HW,2013-02-18 02:10:00,
2013-02-17 20:22:00,29.1,22.7,29.67,ESE,112,0.0,0.0,77,0.00,,,0.00,WUHU140HW,2013-02-18 02:22:00,
2013-02-17 20:33:00,29.3,22.9,29.67,SE,135,0.0,0.0,77,0.00,,,0.00,WUHU140HW,2013-02-18 02:33:00,
2013-02-17 20:45:00,29.3,22.9,29.67,ESE,112,0.0,0.0,77,0.00,,,0.00,WUHU140HW,2013-02-18 02:45:00,
2013-02-17 20:56:00,29.1,22.4,29.67,SE,135,0.0,0.0,76,0.00,,,0.00,WUHU140HW,2013-02-18 02:56:00,
2013-02-17 21:07:00,29.1,22.4,29.67,East,90,0.0,0.0,76,0.00,,,0.00,WUHU140HW,2013-02-18 03:07:00,
2013-02-17 21:19:00,29.3,22.6,29.66,ESE,112,0.0,0.0,76,0.00,,,0.00,WUHU140HW,2013-02-18 03:19:00,
2013-02-17 21:30:00,29.3,22.6,29.66,ESE,112,0.0,0.0,76,0.00,,,0.00,WUHU140HW,2013-02-18 03:30:00,
2013-02-17 21:42:00,29.3,22.3,29.66,ESE,112,0.0,0.0,75,0.00,,,0.00,WUHU140HW,2013-02-18 03:42:00,
2013-02-17 21:53:00,29.3,22.6,29.66,ESE,112,0.0,0.0,76,0.00,,,0.00,WUHU140HW,2013-02-18 03:53:00,
2013-02-17 22:05:00,29.3,22.6,29.65,SE,135,0.0,0.0,76,0.00,,,0.00,WUHU140HW,2013-02-18 04:05:00,
2013-02-17 22:16:00,29.1,22.4,29.64,ESE,112,0.0,0.0,76,0.00,,,0.00,WUHU140HW,2013-02-18 04:16:00,
2013-02-17 22:27:00,29.4,22.8,29.64,SE,135,0.0,0.0,76,0.00,,,0.00,WUHU140HW,2013-02-18 04:27:00,
2013-02-17 22:39:00,29.8,22.8,29.64,SSE,157,0.0,0.0,75,0.00,,,0.00,WUHU140HW,2013-02-18 04:39:00,
2013-02-17 22:50:00,30.0,23.0,29.63,SE,135,0.0,0.0,75,0.00,,,0.00,WUHU140HW,2013-02-18 04:50:00,
2013-02-17 23:02:00,30.0,23.0,29.62,SE,135,0.0,0.0,75,0.00,,,0.00,WUHU140HW,2013-02-18 05:02:00,
2013-02-17 23:13:00,30.0,23.0,29.61,ESE,112,0.0,0.0,75,0.00,,,0.00,WUHU140HW,2013-02-18 05:13:00,
2013-02-17 23:24:00,30.0,23.0,29.61,ESE,112,0.0,0.0,75,0.00,,,0.00,WUHU140HW,2013-02-18 05:24:00,
2013-02-17 23:36:00,30.2,23.1,29.61,SE,135,0.0,0.0,75,0.00,,,0.00,WUHU140HW,2013-02-18 05:36:00,
2013-02-17 23:47:00,30.3,23.3,29.60,SE,135,0.0,0.0,75,0.00,,,0.00,WUHU140HW,2013-02-18 05:47:00,
2013-02-17 23:59:00,30.3,23.3,29.59,SE,135,0.0,0.0,75,0.00,,,0.00,WUHU140HW,2013-02-18 05:59:00,